sensor_id;sensor_type;location;lat;lon;timestamp;P1;durP1;ratioP1;P2;durP2;ratioP2
33858;SDS011;20156;47.486;12.074;2022-07-04T00:00:03;3.72;;;2.53;;
33858;SDS011;20156;47.486;12.074;2022-07-04T00:02:30;2.92;;;2.72;;
33858;SDS011;20156;47.486;12.074;2022-07-04T00:04:56;3.08;;;2.40;;
33858;SDS011;20156;47.486;12.074;2022-07-04T00:07:21;2.63;;;2.42;;
33858;SDS011;20156;47.486;12.074;2022-07-04T00:09:46;3.58;;;2.40;;
33858;SDS011;20156;47.486;12.074;2022-07-04T00:12:12;2.97;;;2.40;;
33858;SDS011;20156;47.486;12.074;2022-07-04T00:14:37;2.25;;;2.05;;
33858;SDS011;20156;47.486;12.074;2022-07-04T00:17:03;2.95;;;2.20;;
33858;SDS011;20156;47.486;12.074;2022-07-04T00:19:28;2.75;;;2.10;;
33858;SDS011;20156;47.486;12.074;2022-07-04T00:21:54;2.30;;;2.10;;
33858;SDS011;20156;47.486;12.074;2022-07-04T00:24:19;2.80;;;2.60;;
33858;SDS011;20156;47.486;12.074;2022-07-04T00:26:45;3.70;;;3.17;;
33858;SDS011;20156;47.486;12.074;2022-07-04T00:29:10;4.47;;;2.83;;
33858;SDS011;20156;47.486;12.074;2022-07-04T00:31:35;3.15;;;2.88;;
33858;SDS011;20156;47.486;12.074;2022-07-04T00:34:01;2.80;;;2.60;;
33858;SDS011;20156;47.486;12.074;2022-07-04T00:36:26;3.47;;;3.17;;
33858;SDS011;20156;47.486;12.074;2022-07-04T00:38:52;3.53;;;2.67;;
33858;SDS011;20156;47.486;12.074;2022-07-04T00:41:17;2.80;;;2.60;;
33858;SDS011;20156;47.486;12.074;2022-07-04T00:43:43;5.07;;;3.05;;
33858;SDS011;20156;47.486;12.074;2022-07-04T00:46:08;2.90;;;2.70;;
33858;SDS011;20156;47.486;12.074;2022-07-04T00:48:33;4.05;;;2.72;;
33858;SDS011;20156;47.486;12.074;2022-07-04T00:50:59;2.75;;;2.55;;
33858;SDS011;20156;47.486;12.074;2022-07-04T00:53:24;3.42;;;2.38;;
33858;SDS011;20156;47.486;12.074;2022-07-04T00:55:50;2.85;;;2.65;;
33858;SDS011;20156;47.486;12.074;2022-07-04T00:58:20;2.75;;;2.55;;
33858;SDS011;20156;47.486;12.074;2022-07-04T01:00:47;3.17;;;2.67;;
33858;SDS011;20156;47.486;12.074;2022-07-04T01:03:13;3.45;;;2.95;;
33858;SDS011;20156;47.486;12.074;2022-07-04T01:05:38;4.00;;;3.45;;
33858;SDS011;20156;47.486;12.074;2022-07-04T01:08:05;4.72;;;3.30;;
33858;SDS011;20156;47.486;12.074;2022-07-04T01:10:31;3.75;;;3.28;;
33858;SDS011;20156;47.486;12.074;2022-07-04T01:12:56;5.55;;;3.88;;
33858;SDS011;20156;47.486;12.074;2022-07-04T01:15:22;4.22;;;3.63;;
33858;SDS011;20156;47.486;12.074;2022-07-04T01:17:48;4.82;;;3.75;;
33858;SDS011;20156;47.486;12.074;2022-07-04T01:20:14;3.90;;;3.58;;
33858;SDS011;20156;47.486;12.074;2022-07-04T01:22:40;5.18;;;3.30;;
33858;SDS011;20156;47.486;12.074;2022-07-04T01:25:06;3.90;;;3.50;;
33858;SDS011;20156;47.486;12.074;2022-07-04T01:27:32;4.35;;;3.53;;
33858;SDS011;20156;47.486;12.074;2022-07-04T01:29:58;4.07;;;3.42;;
33858;SDS011;20156;47.486;12.074;2022-07-04T01:32:23;4.63;;;3.80;;
33858;SDS011;20156;47.486;12.074;2022-07-04T01:34:49;4.32;;;3.92;;
33858;SDS011;20156;47.486;12.074;2022-07-04T01:37:14;4.15;;;3.53;;
33858;SDS011;20156;47.486;12.074;2022-07-04T01:39:40;5.70;;;4.47;;
33858;SDS011;20156;47.486;12.074;2022-07-04T01:42:05;4.70;;;3.97;;
33858;SDS011;20156;47.486;12.074;2022-07-04T01:44:31;4.93;;;3.50;;
33858;SDS011;20156;47.486;12.074;2022-07-04T01:46:57;4.90;;;3.95;;
33858;SDS011;20156;47.486;12.074;2022-07-04T01:49:23;4.55;;;3.90;;
33858;SDS011;20156;47.486;12.074;2022-07-04T01:51:48;4.10;;;3.50;;
33858;SDS011;20156;47.486;12.074;2022-07-04T01:54:15;4.10;;;3.42;;
33858;SDS011;20156;47.486;12.074;2022-07-04T01:56:41;7.20;;;3.80;;
33858;SDS011;20156;47.486;12.074;2022-07-04T01:59:07;3.70;;;3.42;;
33858;SDS011;20156;47.486;12.074;2022-07-04T02:01:33;5.80;;;3.97;;
33858;SDS011;20156;47.486;12.074;2022-07-04T02:03:59;4.13;;;3.78;;
33858;SDS011;20156;47.486;12.074;2022-07-04T02:06:26;4.80;;;3.53;;
33858;SDS011;20156;47.486;12.074;2022-07-04T02:08:52;3.90;;;3.60;;
33858;SDS011;20156;47.486;12.074;2022-07-04T02:11:37;4.72;;;3.22;;
33858;SDS011;20156;47.486;12.074;2022-07-04T02:14:21;3.78;;;3.47;;
33858;SDS011;20156;47.486;12.074;2022-07-04T02:16:47;4.15;;;3.75;;
33858;SDS011;20156;47.486;12.074;2022-07-04T02:19:13;3.78;;;3.47;;
33858;SDS011;20156;47.486;12.074;2022-07-04T02:21:38;4.13;;;3.72;;
33858;SDS011;20156;47.486;12.074;2022-07-04T02:24:04;4.20;;;3.70;;
33858;SDS011;20156;47.486;12.074;2022-07-04T02:26:30;4.47;;;3.85;;
33858;SDS011;20156;47.486;12.074;2022-07-04T02:28:55;3.92;;;3.53;;
33858;SDS011;20156;47.486;12.074;2022-07-04T02:31:20;3.80;;;3.50;;
33858;SDS011;20156;47.486;12.074;2022-07-04T02:33:46;3.65;;;3.35;;
33858;SDS011;20156;47.486;12.074;2022-07-04T02:36:11;3.90;;;3.50;;
33858;SDS011;20156;47.486;12.074;2022-07-04T02:38:37;4.18;;;3.78;;
33858;SDS011;20156;47.486;12.074;2022-07-04T02:41:02;3.85;;;3.55;;
33858;SDS011;20156;47.486;12.074;2022-07-04T02:43:27;5.20;;;3.67;;
33858;SDS011;20156;47.486;12.074;2022-07-04T02:45:53;4.22;;;3.83;;
33858;SDS011;20156;47.486;12.074;2022-07-04T02:48:18;4.20;;;3.45;;
33858;SDS011;20156;47.486;12.074;2022-07-04T02:50:43;4.65;;;3.75;;
33858;SDS011;20156;47.486;12.074;2022-07-04T02:53:09;4.90;;;4.40;;
33858;SDS011;20156;47.486;12.074;2022-07-04T02:55:34;5.93;;;4.00;;
33858;SDS011;20156;47.486;12.074;2022-07-04T02:58:00;6.60;;;4.25;;
33858;SDS011;20156;47.486;12.074;2022-07-04T03:00:25;4.45;;;4.05;;
33858;SDS011;20156;47.486;12.074;2022-07-04T03:02:51;5.20;;;4.70;;
33858;SDS011;20156;47.486;12.074;2022-07-04T03:05:18;4.97;;;4.30;;
33858;SDS011;20156;47.486;12.074;2022-07-04T03:07:43;4.30;;;3.90;;
33858;SDS011;20156;47.486;12.074;2022-07-04T03:10:09;4.57;;;3.80;;
33858;SDS011;20156;47.486;12.074;2022-07-04T03:12:34;4.20;;;3.60;;
33858;SDS011;20156;47.486;12.074;2022-07-04T03:14:59;5.30;;;3.40;;
33858;SDS011;20156;47.486;12.074;2022-07-04T03:17:25;5.47;;;3.50;;
33858;SDS011;20156;47.486;12.074;2022-07-04T03:19:51;4.28;;;3.88;;
33858;SDS011;20156;47.486;12.074;2022-07-04T03:22:16;4.35;;;3.75;;
33858;SDS011;20156;47.486;12.074;2022-07-04T03:24:42;3.75;;;3.42;;
33858;SDS011;20156;47.486;12.074;2022-07-04T03:27:07;4.47;;;3.20;;
33858;SDS011;20156;47.486;12.074;2022-07-04T03:29:33;4.70;;;3.38;;
33858;SDS011;20156;47.486;12.074;2022-07-04T03:32:00;5.05;;;3.35;;
33858;SDS011;20156;47.486;12.074;2022-07-04T03:34:25;3.65;;;3.35;;
33858;SDS011;20156;47.486;12.074;2022-07-04T03:36:51;3.35;;;3.03;;
33858;SDS011;20156;47.486;12.074;2022-07-04T03:39:16;4.60;;;3.70;;
33858;SDS011;20156;47.486;12.074;2022-07-04T03:41:42;4.10;;;3.70;;
33858;SDS011;20156;47.486;12.074;2022-07-04T03:44:07;3.80;;;3.40;;
33858;SDS011;20156;47.486;12.074;2022-07-04T03:46:33;3.88;;;3.55;;
33858;SDS011;20156;47.486;12.074;2022-07-04T03:48:58;4.07;;;3.70;;
33858;SDS011;20156;47.486;12.074;2022-07-04T03:51:24;4.15;;;3.45;;
33858;SDS011;20156;47.486;12.074;2022-07-04T03:53:50;3.55;;;3.25;;
33858;SDS011;20156;47.486;12.074;2022-07-04T03:56:15;3.17;;;2.88;;
33858;SDS011;20156;47.486;12.074;2022-07-04T03:58:42;4.38;;;2.95;;
33858;SDS011;20156;47.486;12.074;2022-07-04T04:01:09;3.53;;;3.15;;
33858;SDS011;20156;47.486;12.074;2022-07-04T04:03:34;3.28;;;2.97;;
33858;SDS011;20156;47.486;12.074;2022-07-04T04:06:18;3.35;;;3.05;;
33858;SDS011;20156;47.486;12.074;2022-07-04T04:08:44;3.90;;;3.60;;
33858;SDS011;20156;47.486;12.074;2022-07-04T04:11:09;4.05;;;3.65;;
33858;SDS011;20156;47.486;12.074;2022-07-04T04:13:35;5.35;;;4.00;;
33858;SDS011;20156;47.486;12.074;2022-07-04T04:16:00;3.53;;;3.22;;
33858;SDS011;20156;47.486;12.074;2022-07-04T04:18:26;3.58;;;3.28;;
33858;SDS011;20156;47.486;12.074;2022-07-04T04:20:51;3.92;;;2.80;;
33858;SDS011;20156;47.486;12.074;2022-07-04T04:23:17;4.43;;;2.88;;
33858;SDS011;20156;47.486;12.074;2022-07-04T04:25:42;2.80;;;2.55;;
33858;SDS011;20156;47.486;12.074;2022-07-04T04:28:08;3.25;;;2.95;;
33858;SDS011;20156;47.486;12.074;2022-07-04T04:30:33;2.72;;;2.53;;
33858;SDS011;20156;47.486;12.074;2022-07-04T04:32:59;3.03;;;2.70;;
33858;SDS011;20156;47.486;12.074;2022-07-04T04:35:25;3.13;;;2.38;;
33858;SDS011;20156;47.486;12.074;2022-07-04T04:37:50;2.92;;;2.70;;
33858;SDS011;20156;47.486;12.074;2022-07-04T04:40:16;2.90;;;2.70;;
33858;SDS011;20156;47.486;12.074;2022-07-04T04:42:42;2.83;;;2.63;;
33858;SDS011;20156;47.486;12.074;2022-07-04T04:45:07;2.60;;;2.40;;
33858;SDS011;20156;47.486;12.074;2022-07-04T04:47:33;2.88;;;2.67;;
33858;SDS011;20156;47.486;12.074;2022-07-04T04:49:58;2.80;;;2.60;;
33858;SDS011;20156;47.486;12.074;2022-07-04T04:52:25;3.08;;;2.72;;
33858;SDS011;20156;47.486;12.074;2022-07-04T04:54:51;4.00;;;2.70;;
33858;SDS011;20156;47.486;12.074;2022-07-04T04:57:16;2.85;;;2.65;;
33858;SDS011;20156;47.486;12.074;2022-07-04T04:59:42;2.88;;;2.58;;
33858;SDS011;20156;47.486;12.074;2022-07-04T05:02:07;3.08;;;2.78;;
33858;SDS011;20156;47.486;12.074;2022-07-04T05:04:33;3.53;;;2.60;;
33858;SDS011;20156;47.486;12.074;2022-07-04T05:06:58;3.47;;;3.17;;
33858;SDS011;20156;47.486;12.074;2022-07-04T05:09:24;3.85;;;3.53;;
33858;SDS011;20156;47.486;12.074;2022-07-04T05:11:49;4.90;;;3.67;;
33858;SDS011;20156;47.486;12.074;2022-07-04T05:14:15;4.40;;;4.00;;
33858;SDS011;20156;47.486;12.074;2022-07-04T05:16:40;3.28;;;3.08;;
33858;SDS011;20156;47.486;12.074;2022-07-04T05:19:06;2.75;;;2.42;;
33858;SDS011;20156;47.486;12.074;2022-07-04T05:21:32;3.60;;;3.30;;
33858;SDS011;20156;47.486;12.074;2022-07-04T05:23:57;3.53;;;3.10;;
33858;SDS011;20156;47.486;12.074;2022-07-04T05:26:23;3.50;;;3.20;;
33858;SDS011;20156;47.486;12.074;2022-07-04T05:28:48;3.90;;;3.50;;
33858;SDS011;20156;47.486;12.074;2022-07-04T05:31:14;3.70;;;3.40;;
33858;SDS011;20156;47.486;12.074;2022-07-04T05:33:40;3.95;;;3.28;;
33858;SDS011;20156;47.486;12.074;2022-07-04T05:36:05;3.75;;;3.13;;
33858;SDS011;20156;47.486;12.074;2022-07-04T05:38:31;3.30;;;3.00;;
33858;SDS011;20156;47.486;12.074;2022-07-04T05:40:56;3.22;;;3.03;;
33858;SDS011;20156;47.486;12.074;2022-07-04T05:43:22;4.13;;;3.50;;
33858;SDS011;20156;47.486;12.074;2022-07-04T05:45:47;3.05;;;2.78;;
33858;SDS011;20156;47.486;12.074;2022-07-04T05:48:15;3.60;;;3.30;;
33858;SDS011;20156;47.486;12.074;2022-07-04T05:50:41;4.00;;;3.55;;
33858;SDS011;20156;47.486;12.074;2022-07-04T05:53:06;5.15;;;3.67;;
33858;SDS011;20156;47.486;12.074;2022-07-04T05:55:32;5.25;;;3.08;;
33858;SDS011;20156;47.486;12.074;2022-07-04T05:57:58;4.00;;;3.67;;
33858;SDS011;20156;47.486;12.074;2022-07-04T06:00:24;4.10;;;3.78;;
33858;SDS011;20156;47.486;12.074;2022-07-04T06:02:49;3.47;;;3.13;;
33858;SDS011;20156;47.486;12.074;2022-07-04T06:05:14;4.28;;;3.40;;
33858;SDS011;20156;47.486;12.074;2022-07-04T06:07:40;4.40;;;3.58;;
33858;SDS011;20156;47.486;12.074;2022-07-04T06:10:06;4.40;;;3.10;;
33858;SDS011;20156;47.486;12.074;2022-07-04T06:12:31;5.00;;;3.25;;
33858;SDS011;20156;47.486;12.074;2022-07-04T06:14:57;4.15;;;3.40;;
33858;SDS011;20156;47.486;12.074;2022-07-04T06:17:23;3.42;;;3.13;;
33858;SDS011;20156;47.486;12.074;2022-07-04T06:19:49;3.97;;;3.53;;
33858;SDS011;20156;47.486;12.074;2022-07-04T06:22:14;3.58;;;3.28;;
33858;SDS011;20156;47.486;12.074;2022-07-04T06:24:40;3.80;;;3.38;;
33858;SDS011;20156;47.486;12.074;2022-07-04T06:27:05;4.28;;;2.83;;
33858;SDS011;20156;47.486;12.074;2022-07-04T06:29:31;3.97;;;2.92;;
33858;SDS011;20156;47.486;12.074;2022-07-04T06:31:56;3.88;;;3.45;;
33858;SDS011;20156;47.486;12.074;2022-07-04T06:34:22;4.90;;;3.90;;
33858;SDS011;20156;47.486;12.074;2022-07-04T06:37:05;5.28;;;3.85;;
33858;SDS011;20156;47.486;12.074;2022-07-04T06:39:31;4.07;;;3.67;;
33858;SDS011;20156;47.486;12.074;2022-07-04T06:41:56;5.07;;;4.57;;
33858;SDS011;20156;47.486;12.074;2022-07-04T06:44:22;3.17;;;2.90;;
33858;SDS011;20156;47.486;12.074;2022-07-04T06:46:48;4.68;;;4.28;;
33858;SDS011;20156;47.486;12.074;2022-07-04T06:49:13;2.67;;;2.47;;
33858;SDS011;20156;47.486;12.074;2022-07-04T06:51:39;2.75;;;2.55;;
33858;SDS011;20156;47.486;12.074;2022-07-04T06:54:05;3.30;;;3.00;;
33858;SDS011;20156;47.486;12.074;2022-07-04T06:56:30;3.35;;;3.05;;
33858;SDS011;20156;47.486;12.074;2022-07-04T06:58:56;3.03;;;2.67;;
33858;SDS011;20156;47.486;12.074;2022-07-04T07:01:21;3.80;;;3.47;;
33858;SDS011;20156;47.486;12.074;2022-07-04T07:03:47;2.97;;;2.75;;
33858;SDS011;20156;47.486;12.074;2022-07-04T07:06:12;2.72;;;2.53;;
33858;SDS011;20156;47.486;12.074;2022-07-04T07:08:38;2.58;;;2.38;;
33858;SDS011;20156;47.486;12.074;2022-07-04T07:11:04;2.97;;;2.67;;
33858;SDS011;20156;47.486;12.074;2022-07-04T07:13:45;3.75;;;3.00;;
33858;SDS011;20156;47.486;12.074;2022-07-04T07:16:12;2.80;;;2.60;;
33858;SDS011;20156;47.486;12.074;2022-07-04T07:18:38;4.85;;;3.10;;
33858;SDS011;20156;47.486;12.074;2022-07-04T07:21:03;3.28;;;3.00;;
33858;SDS011;20156;47.486;12.074;2022-07-04T07:23:29;4.03;;;3.20;;
33858;SDS011;20156;47.486;12.074;2022-07-04T07:25:55;4.50;;;3.25;;
33858;SDS011;20156;47.486;12.074;2022-07-04T07:28:20;3.97;;;3.58;;
33858;SDS011;20156;47.486;12.074;2022-07-04T07:30:46;4.25;;;3.90;;
33858;SDS011;20156;47.486;12.074;2022-07-04T07:33:11;3.88;;;3.50;;
33858;SDS011;20156;47.486;12.074;2022-07-04T07:35:37;5.55;;;4.10;;
33858;SDS011;20156;47.486;12.074;2022-07-04T07:38:03;3.97;;;3.42;;
33858;SDS011;20156;47.486;12.074;2022-07-04T07:40:28;4.30;;;3.90;;
33858;SDS011;20156;47.486;12.074;2022-07-04T07:42:54;4.00;;;3.70;;
33858;SDS011;20156;47.486;12.074;2022-07-04T07:45:20;3.70;;;3.10;;
33858;SDS011;20156;47.486;12.074;2022-07-04T07:47:46;4.05;;;3.70;;
33858;SDS011;20156;47.486;12.074;2022-07-04T07:50:11;4.68;;;3.70;;
33858;SDS011;20156;47.486;12.074;2022-07-04T07:52:37;4.68;;;4.28;;
33858;SDS011;20156;47.486;12.074;2022-07-04T07:55:03;4.38;;;3.97;;
33858;SDS011;20156;47.486;12.074;2022-07-04T07:57:29;5.03;;;4.53;;
33858;SDS011;20156;47.486;12.074;2022-07-04T07:59:55;5.35;;;4.70;;
33858;SDS011;20156;47.486;12.074;2022-07-04T08:02:21;4.85;;;3.97;;
33858;SDS011;20156;47.486;12.074;2022-07-04T08:05:06;4.47;;;4.07;;
33858;SDS011;20156;47.486;12.074;2022-07-04T08:07:32;4.60;;;4.20;;
33858;SDS011;20156;47.486;12.074;2022-07-04T08:09:57;4.13;;;3.33;;
33858;SDS011;20156;47.486;12.074;2022-07-04T08:12:23;4.55;;;4.15;;
33858;SDS011;20156;47.486;12.074;2022-07-04T08:14:48;6.80;;;4.10;;
33858;SDS011;20156;47.486;12.074;2022-07-04T08:17:13;6.00;;;4.20;;
33858;SDS011;20156;47.486;12.074;2022-07-04T08:19:39;4.40;;;4.00;;
33858;SDS011;20156;47.486;12.074;2022-07-04T08:22:04;6.10;;;3.80;;
33858;SDS011;20156;47.486;12.074;2022-07-04T08:24:30;4.45;;;4.05;;
33858;SDS011;20156;47.486;12.074;2022-07-04T08:26:55;4.97;;;3.97;;
33858;SDS011;20156;47.486;12.074;2022-07-04T08:29:21;4.97;;;4.47;;
33858;SDS011;20156;47.486;12.074;2022-07-04T08:31:47;5.82;;;4.00;;
33858;SDS011;20156;47.486;12.074;2022-07-04T08:34:12;4.45;;;4.05;;
33858;SDS011;20156;47.486;12.074;2022-07-04T08:36:38;6.07;;;4.03;;
33858;SDS011;20156;47.486;12.074;2022-07-04T08:39:04;4.63;;;4.00;;
33858;SDS011;20156;47.486;12.074;2022-07-04T08:41:34;4.88;;;3.95;;
33858;SDS011;20156;47.486;12.074;2022-07-04T08:44:02;4.65;;;4.10;;
33858;SDS011;20156;47.486;12.074;2022-07-04T08:46:29;4.05;;;3.75;;
33858;SDS011;20156;47.486;12.074;2022-07-04T08:48:55;4.60;;;4.20;;
33858;SDS011;20156;47.486;12.074;2022-07-04T08:54:11;4.70;;;4.30;;
33858;SDS011;20156;47.486;12.074;2022-07-04T08:56:56;5.95;;;4.50;;
33858;SDS011;20156;47.486;12.074;2022-07-04T08:59:41;5.35;;;4.80;;
33858;SDS011;20156;47.486;12.074;2022-07-04T09:02:10;5.93;;;5.10;;
33858;SDS011;20156;47.486;12.074;2022-07-04T09:04:38;5.80;;;4.80;;
33858;SDS011;20156;47.486;12.074;2022-07-04T09:07:10;5.35;;;4.55;;
33858;SDS011;20156;47.486;12.074;2022-07-04T09:09:37;6.07;;;5.13;;
33858;SDS011;20156;47.486;12.074;2022-07-04T09:12:05;6.00;;;4.47;;
33858;SDS011;20156;47.486;12.074;2022-07-04T09:14:30;5.43;;;4.93;;
33858;SDS011;20156;47.486;12.074;2022-07-04T09:16:57;4.80;;;3.50;;
33858;SDS011;20156;47.486;12.074;2022-07-04T09:19:23;5.70;;;3.65;;
33858;SDS011;20156;47.486;12.074;2022-07-04T09:21:49;4.32;;;3.92;;
33858;SDS011;20156;47.486;12.074;2022-07-04T09:24:15;5.07;;;4.15;;
33858;SDS011;20156;47.486;12.074;2022-07-04T09:26:43;5.00;;;4.47;;
33858;SDS011;20156;47.486;12.074;2022-07-04T09:29:10;7.03;;;4.93;;
33858;SDS011;20156;47.486;12.074;2022-07-04T09:31:36;4.47;;;4.07;;
33858;SDS011;20156;47.486;12.074;2022-07-04T09:34:03;4.78;;;4.15;;
33858;SDS011;20156;47.486;12.074;2022-07-04T09:36:30;5.78;;;4.90;;
33858;SDS011;20156;47.486;12.074;2022-07-04T09:41:49;5.13;;;4.63;;
33858;SDS011;20156;47.486;12.074;2022-07-04T09:44:16;5.63;;;4.50;;
33858;SDS011;20156;47.486;12.074;2022-07-04T09:46:42;4.45;;;4.05;;
33858;SDS011;20156;47.486;12.074;2022-07-04T09:49:08;4.03;;;3.55;;
33858;SDS011;20156;47.486;12.074;2022-07-04T09:51:36;3.90;;;3.40;;
33858;SDS011;20156;47.486;12.074;2022-07-04T09:54:20;4.72;;;4.05;;
33858;SDS011;20156;47.486;12.074;2022-07-04T09:56:51;4.32;;;3.42;;
33858;SDS011;20156;47.486;12.074;2022-07-04T09:59:18;5.22;;;4.40;;
33858;SDS011;20156;47.486;12.074;2022-07-04T10:01:44;5.25;;;4.85;;
33858;SDS011;20156;47.486;12.074;2022-07-04T10:04:11;4.85;;;4.45;;
33858;SDS011;20156;47.486;12.074;2022-07-04T10:06:39;5.25;;;4.53;;
33858;SDS011;20156;47.486;12.074;2022-07-04T10:11:36;5.85;;;5.07;;
33858;SDS011;20156;47.486;12.074;2022-07-04T10:14:04;5.25;;;4.80;;
33858;SDS011;20156;47.486;12.074;2022-07-04T10:16:31;6.82;;;4.70;;
33858;SDS011;20156;47.486;12.074;2022-07-04T10:18:56;4.50;;;4.07;;
33858;SDS011;20156;47.486;12.074;2022-07-04T10:21:22;4.18;;;3.78;;
33858;SDS011;20156;47.486;12.074;2022-07-04T10:23:49;4.00;;;3.60;;
33858;SDS011;20156;47.486;12.074;2022-07-04T10:26:20;3.88;;;3.53;;
33858;SDS011;20156;47.486;12.074;2022-07-04T10:28:47;3.70;;;3.17;;
33858;SDS011;20156;47.486;12.074;2022-07-04T10:31:15;4.30;;;3.22;;
33858;SDS011;20156;47.486;12.074;2022-07-04T10:33:41;4.57;;;3.30;;
33858;SDS011;20156;47.486;12.074;2022-07-04T10:36:19;2.67;;;2.47;;
33858;SDS011;20156;47.486;12.074;2022-07-04T10:38:55;4.03;;;3.08;;
33858;SDS011;20156;47.486;12.074;2022-07-04T10:41:21;4.60;;;3.05;;
33858;SDS011;20156;47.486;12.074;2022-07-04T10:48:49;3.03;;;2.80;;
33858;SDS011;20156;47.486;12.074;2022-07-04T10:51:40;2.80;;;2.60;;
33858;SDS011;20156;47.486;12.074;2022-07-04T10:54:09;3.35;;;2.97;;
33858;SDS011;20156;47.486;12.074;2022-07-04T10:56:45;3.80;;;3.40;;
33858;SDS011;20156;47.486;12.074;2022-07-04T10:59:19;3.70;;;3.40;;
33858;SDS011;20156;47.486;12.074;2022-07-04T11:01:49;3.83;;;3.50;;
33858;SDS011;20156;47.486;12.074;2022-07-04T11:04:44;6.35;;;3.83;;
33858;SDS011;20156;47.486;12.074;2022-07-04T11:07:13;3.22;;;2.92;;
33858;SDS011;20156;47.486;12.074;2022-07-04T11:10:22;3.75;;;3.25;;
33858;SDS011;20156;47.486;12.074;2022-07-04T11:17:57;4.10;;;3.70;;
33858;SDS011;20156;47.486;12.074;2022-07-04T11:20:24;3.50;;;3.20;;
33858;SDS011;20156;47.486;12.074;2022-07-04T11:22:51;3.65;;;3.35;;
33858;SDS011;20156;47.486;12.074;2022-07-04T11:25:16;4.35;;;3.95;;
33858;SDS011;20156;47.486;12.074;2022-07-04T11:27:42;4.97;;;3.88;;
33858;SDS011;20156;47.486;12.074;2022-07-04T11:30:08;4.50;;;4.00;;
33858;SDS011;20156;47.486;12.074;2022-07-04T11:32:35;3.33;;;3.03;;
33858;SDS011;20156;47.486;12.074;2022-07-04T11:35:06;4.10;;;3.50;;
33858;SDS011;20156;47.486;12.074;2022-07-04T11:37:33;3.38;;;3.08;;
33858;SDS011;20156;47.486;12.074;2022-07-04T11:39:58;3.28;;;2.97;;
33858;SDS011;20156;47.486;12.074;2022-07-04T11:45:48;3.30;;;3.05;;
33858;SDS011;20156;47.486;12.074;2022-07-04T11:48:23;3.55;;;3.25;;
33858;SDS011;20156;47.486;12.074;2022-07-04T11:50:50;3.78;;;3.40;;
33858;SDS011;20156;47.486;12.074;2022-07-04T11:53:17;4.47;;;3.70;;
33858;SDS011;20156;47.486;12.074;2022-07-04T11:55:58;4.10;;;3.65;;
33858;SDS011;20156;47.486;12.074;2022-07-04T11:58:38;6.03;;;4.70;;
33858;SDS011;20156;47.486;12.074;2022-07-04T12:01:04;6.05;;;4.43;;
33858;SDS011;20156;47.486;12.074;2022-07-04T12:03:31;6.22;;;4.60;;
33858;SDS011;20156;47.486;12.074;2022-07-04T12:06:01;3.85;;;3.55;;
33858;SDS011;20156;47.486;12.074;2022-07-04T12:08:31;4.85;;;4.30;;
33858;SDS011;20156;47.486;12.074;2022-07-04T12:10:56;6.00;;;4.05;;
33858;SDS011;20156;47.486;12.074;2022-07-04T12:13:22;4.10;;;3.70;;
33858;SDS011;20156;47.486;12.074;2022-07-04T12:15:48;3.75;;;3.38;;
33858;SDS011;20156;47.486;12.074;2022-07-04T12:18:18;3.38;;;3.08;;
33858;SDS011;20156;47.486;12.074;2022-07-04T12:20:46;2.92;;;2.72;;
33858;SDS011;20156;47.486;12.074;2022-07-04T12:23:13;3.75;;;3.20;;
33858;SDS011;20156;47.486;12.074;2022-07-04T12:25:39;3.25;;;2.95;;
33858;SDS011;20156;47.486;12.074;2022-07-04T12:28:08;3.00;;;2.70;;
33858;SDS011;20156;47.486;12.074;2022-07-04T12:30:39;3.30;;;3.00;;
33858;SDS011;20156;47.486;12.074;2022-07-04T12:33:22;3.00;;;2.70;;
33858;SDS011;20156;47.486;12.074;2022-07-04T12:35:52;3.00;;;2.63;;
33858;SDS011;20156;47.486;12.074;2022-07-04T12:41:02;4.13;;;3.00;;
33858;SDS011;20156;47.486;12.074;2022-07-04T12:46:04;3.60;;;3.30;;
33858;SDS011;20156;47.486;12.074;2022-07-04T12:48:30;5.47;;;4.30;;
33858;SDS011;20156;47.486;12.074;2022-07-04T12:51:11;4.85;;;4.28;;
33858;SDS011;20156;47.486;12.074;2022-07-04T12:53:39;3.75;;;3.42;;
33858;SDS011;20156;47.486;12.074;2022-07-04T12:56:06;5.13;;;4.10;;
33858;SDS011;20156;47.486;12.074;2022-07-04T12:58:33;3.88;;;3.45;;
33858;SDS011;20156;47.486;12.074;2022-07-04T13:00:58;3.15;;;2.85;;
33858;SDS011;20156;47.486;12.074;2022-07-04T13:03:24;4.38;;;3.35;;
33858;SDS011;20156;47.486;12.074;2022-07-04T13:05:49;3.60;;;3.30;;
33858;SDS011;20156;47.486;12.074;2022-07-04T13:08:15;4.18;;;3.70;;
33858;SDS011;20156;47.486;12.074;2022-07-04T13:10:40;3.80;;;3.50;;
33858;SDS011;20156;47.486;12.074;2022-07-04T13:13:06;5.80;;;3.45;;
33858;SDS011;20156;47.486;12.074;2022-07-04T13:15:32;3.58;;;3.28;;
33858;SDS011;20156;47.486;12.074;2022-07-04T13:17:57;3.40;;;3.10;;
33858;SDS011;20156;47.486;12.074;2022-07-04T13:20:23;3.95;;;3.55;;
33858;SDS011;20156;47.486;12.074;2022-07-04T13:22:49;4.43;;;3.80;;
33858;SDS011;20156;47.486;12.074;2022-07-04T13:25:15;5.40;;;4.10;;
33858;SDS011;20156;47.486;12.074;2022-07-04T13:27:40;4.30;;;3.90;;
33858;SDS011;20156;47.486;12.074;2022-07-04T13:30:06;4.60;;;4.20;;
33858;SDS011;20156;47.486;12.074;2022-07-04T13:32:32;4.10;;;3.75;;
33858;SDS011;20156;47.486;12.074;2022-07-04T13:34:59;4.20;;;3.80;;
33858;SDS011;20156;47.486;12.074;2022-07-04T13:37:25;3.53;;;3.15;;
33858;SDS011;20156;47.486;12.074;2022-07-04T13:39:50;3.83;;;3.53;;
33858;SDS011;20156;47.486;12.074;2022-07-04T13:42:16;4.60;;;3.78;;
33858;SDS011;20156;47.486;12.074;2022-07-04T13:45:02;3.47;;;3.17;;
33858;SDS011;20156;47.486;12.074;2022-07-04T13:47:28;3.42;;;2.72;;
33858;SDS011;20156;47.486;12.074;2022-07-04T13:49:53;3.05;;;2.75;;
33858;SDS011;20156;47.486;12.074;2022-07-04T13:52:20;2.92;;;2.72;;
33858;SDS011;20156;47.486;12.074;2022-07-04T13:54:45;3.00;;;2.70;;
33858;SDS011;20156;47.486;12.074;2022-07-04T13:57:11;2.83;;;2.53;;
33858;SDS011;20156;47.486;12.074;2022-07-04T13:59:37;2.85;;;2.65;;
33858;SDS011;20156;47.486;12.074;2022-07-04T14:02:02;3.15;;;2.45;;
33858;SDS011;20156;47.486;12.074;2022-07-04T14:04:28;3.75;;;2.70;;
33858;SDS011;20156;47.486;12.074;2022-07-04T14:06:53;2.58;;;2.38;;
33858;SDS011;20156;47.486;12.074;2022-07-04T14:09:18;2.47;;;2.28;;
33858;SDS011;20156;47.486;12.074;2022-07-04T14:11:44;2.50;;;2.30;;
33858;SDS011;20156;47.486;12.074;2022-07-04T14:14:10;3.17;;;2.97;;
33858;SDS011;20156;47.486;12.074;2022-07-04T14:16:36;2.75;;;2.55;;
33858;SDS011;20156;47.486;12.074;2022-07-04T14:19:01;3.08;;;2.80;;
33858;SDS011;20156;47.486;12.074;2022-07-04T14:21:27;2.80;;;2.58;;
33858;SDS011;20156;47.486;12.074;2022-07-04T14:23:52;3.08;;;2.50;;
33858;SDS011;20156;47.486;12.074;2022-07-04T14:26:19;3.00;;;2.40;;
33858;SDS011;20156;47.486;12.074;2022-07-04T14:28:49;2.72;;;2.53;;
33858;SDS011;20156;47.486;12.074;2022-07-04T14:31:15;2.72;;;2.53;;
33858;SDS011;20156;47.486;12.074;2022-07-04T14:33:40;2.95;;;2.67;;
33858;SDS011;20156;47.486;12.074;2022-07-04T14:36:06;2.92;;;2.72;;
33858;SDS011;20156;47.486;12.074;2022-07-04T14:38:32;3.00;;;2.80;;
33858;SDS011;20156;47.486;12.074;2022-07-04T14:40:58;3.88;;;2.40;;
33858;SDS011;20156;47.486;12.074;2022-07-04T14:43:34;2.70;;;2.50;;
33858;SDS011;20156;47.486;12.074;2022-07-04T14:46:01;3.00;;;2.80;;
33858;SDS011;20156;47.486;12.074;2022-07-04T14:48:26;3.22;;;3.03;;
33858;SDS011;20156;47.486;12.074;2022-07-04T14:50:52;3.17;;;2.58;;
33858;SDS011;20156;47.486;12.074;2022-07-04T14:53:17;3.17;;;2.90;;
33858;SDS011;20156;47.486;12.074;2022-07-04T14:55:44;3.40;;;3.15;;
33858;SDS011;20156;47.486;12.074;2022-07-04T14:58:10;3.50;;;2.75;;